createdAt,value
2018-12-20T00:01:20.271Z,100518.59
2018-12-20T00:02:55.712Z,100512.30
2018-12-20T00:04:31.482Z,100514.27
2018-12-20T00:06:07.078Z,100517.95
2018-12-20T00:07:42.730Z,100512.86
2018-12-20T00:09:18.187Z,100508.64
2018-12-20T00:10:53.821Z,100502.47
2018-12-20T00:12:29.394Z,100509.02
2018-12-20T00:14:05.054Z,100505.15
2018-12-20T00:15:40.554Z,100503.23
2018-12-20T00:17:21.219Z,100498.55
2018-12-20T00:18:56.851Z,100499.22
2018-12-20T00:20:32.393Z,100500.75
2018-12-20T00:22:09.359Z,100511.63
2018-12-20T00:23:45.062Z,100511.09
2018-12-20T00:25:20.877Z,100505.86
2018-12-20T00:26:56.538Z,100505.69
2018-12-20T00:28:32.124Z,100507.50
2018-12-20T00:30:08.197Z,100498.41
2018-12-20T00:31:43.704Z,100502.23
2018-12-20T00:33:19.101Z,100500.59
2018-12-20T00:34:54.644Z,100492.30
2018-12-20T00:36:30.201Z,100496.16
2018-12-20T00:38:05.972Z,100495.86
2018-12-20T00:39:41.629Z,100500.95
2018-12-20T00:41:17.142Z,100502.75
2018-12-20T00:42:52.687Z,100496.73
2018-12-20T00:44:28.191Z,100503.00
2018-12-20T00:46:03.844Z,100502.39
2018-12-20T00:47:39.276Z,100507.56
2018-12-20T00:49:14.810Z,100508.95
2018-12-20T00:50:50.326Z,100507.93
2018-12-20T00:52:25.819Z,100506.16
2018-12-20T00:54:01.297Z,100503.55
2018-12-20T00:55:36.832Z,100500.27
2018-12-20T00:57:12.405Z,100513.52
2018-12-20T00:58:47.857Z,100518.70
2018-12-20T01:00:23.359Z,100514.66
2018-12-20T01:01:59.000Z,100514.39
2018-12-20T01:03:34.604Z,100513.45
2018-12-20T01:05:10.122Z,100512.33
2018-12-20T01:06:45.538Z,100510.89
2018-12-20T01:08:21.060Z,100514.89
2018-12-20T01:09:56.628Z,100512.79
2018-12-20T01:11:32.232Z,100508.77
2018-12-20T01:13:07.981Z,100506.70
2018-12-20T01:14:45.482Z,100514.81
2018-12-20T01:16:20.961Z,100507.95
2018-12-20T01:17:56.397Z,100511.84
2018-12-20T01:19:31.970Z,100518.59
2018-12-20T01:21:07.554Z,100514.46
2018-12-20T01:22:42.986Z,100517.53
2018-12-20T01:24:18.598Z,100513.97
2018-12-20T01:25:54.273Z,100518.33
2018-12-20T01:27:29.793Z,100516.52
2018-12-20T01:29:05.415Z,100518.50
2018-12-20T01:30:41.041Z,100517.76
2018-12-20T01:32:17.049Z,100516.14
2018-12-20T01:33:52.661Z,100523.10
2018-12-20T01:35:28.250Z,100521.91
2018-12-20T01:37:03.864Z,100518.72
2018-12-20T01:38:39.679Z,100517.65
2018-12-20T01:40:15.442Z,100518.61
2018-12-20T01:41:50.841Z,100517.83
2018-12-20T01:43:26.487Z,100519.98
2018-12-20T01:45:01.884Z,100518.30
2018-12-20T01:46:37.373Z,100518.83
2018-12-20T01:48:12.803Z,100514.05
2018-12-20T01:49:48.341Z,100521.66
2018-12-20T01:51:23.933Z,100521.72
2018-12-20T01:52:59.413Z,100524.53
2018-12-20T01:54:34.734Z,100527.72
2018-12-20T01:56:10.265Z,100532.75
2018-12-20T01:57:45.964Z,100520.50
2018-12-20T01:59:21.583Z,100530.40
2018-12-20T02:00:57.091Z,100532.08
2018-12-20T02:02:32.680Z,100531.13
2018-12-20T02:04:08.412Z,100531.93
2018-12-20T02:05:43.969Z,100527.66
2018-12-20T02:07:19.512Z,100522.93
2018-12-20T02:08:55.284Z,100527.19
2018-12-20T02:10:30.828Z,100516.56
2018-12-20T02:12:06.324Z,100519.17
2018-12-20T02:13:42.008Z,100518.95
2018-12-20T02:15:17.509Z,100514.69
2018-12-20T02:16:53.095Z,100515.53
2018-12-20T02:18:28.651Z,100510.56
2018-12-20T02:20:04.791Z,100509.52
2018-12-20T02:21:40.642Z,100509.30
2018-12-20T02:23:16.196Z,100519.70
2018-12-20T02:24:51.805Z,100516.66
2018-12-20T02:26:28.258Z,100531.08
2018-12-20T02:28:04.002Z,100522.86
2018-12-20T02:29:39.738Z,100509.93
2018-12-20T02:31:15.459Z,100514.47
2018-12-20T02:32:51.021Z,100515.17
2018-12-20T02:34:26.835Z,100516.97
2018-12-20T02:36:02.550Z,100515.41
2018-12-20T02:37:38.247Z,100505.37
2018-12-20T02:39:13.920Z,100520.85
2018-12-20T02:40:49.502Z,100507.56
2018-12-20T02:42:25.143Z,100515.02
2018-12-20T02:44:00.885Z,100515.65
2018-12-20T02:45:36.776Z,100508.16
2018-12-20T02:47:12.320Z,100504.70
2018-12-20T02:48:47.986Z,100507.81
2018-12-20T02:50:23.670Z,100502.80
2018-12-20T02:51:59.580Z,100502.95
2018-12-20T02:53:35.317Z,100500.79
2018-12-20T02:55:10.991Z,100494.47
2018-12-20T02:56:46.746Z,100497.03
2018-12-20T02:58:22.534Z,100483.33
2018-12-20T02:59:58.125Z,100493.88
2018-12-20T03:01:33.526Z,100487.68
2018-12-20T03:03:09.155Z,100487.34
2018-12-20T03:04:45.063Z,100490.30
2018-12-20T03:06:20.726Z,100488.02
2018-12-20T03:07:56.421Z,100492.29
2018-12-20T03:09:32.255Z,100488.41
2018-12-20T03:11:08.053Z,100491.92
2018-12-20T03:12:43.623Z,100484.27
2018-12-20T03:14:19.607Z,100491.25
2018-12-20T03:15:55.016Z,100486.86
2018-12-20T03:17:31.764Z,100486.25
2018-12-20T03:19:08.088Z,100481.69
2018-12-20T03:20:44.750Z,100476.09
2018-12-20T03:22:20.867Z,100481.08
2018-12-20T03:23:56.897Z,100485.24
2018-12-20T03:25:33.316Z,100484.17
2018-12-20T03:27:10.010Z,100479.44
2018-12-20T03:28:46.816Z,100480.91
2018-12-20T03:30:23.921Z,100472.87
2018-12-20T03:32:00.421Z,100473.32
2018-12-20T03:33:37.723Z,100471.56
2018-12-20T03:35:13.721Z,100477.61
2018-12-20T03:36:50.284Z,100475.61
2018-12-20T03:38:27.204Z,100477.70
2018-12-20T03:40:03.617Z,100477.86
2018-12-20T03:41:40.170Z,100483.45
2018-12-20T03:43:16.478Z,100478.50
2018-12-20T03:44:53.263Z,100475.20
2018-12-20T03:46:30.462Z,100482.85
2018-12-20T03:48:07.418Z,100482.59
2018-12-20T03:49:43.823Z,100483.09
2018-12-20T03:51:20.634Z,100480.58
2018-12-20T03:52:57.006Z,100483.38
2018-12-20T03:54:34.053Z,100482.41
2018-12-20T03:56:10.858Z,100480.90
2018-12-20T03:57:47.460Z,100481.84
2018-12-20T03:59:24.089Z,100478.83
2018-12-20T04:01:00.452Z,100478.71
2018-12-20T04:02:38.619Z,100475.68
2018-12-20T04:04:16.033Z,100470.41
2018-12-20T04:05:53.116Z,100472.77
2018-12-20T04:07:30.158Z,100475.19
2018-12-20T04:09:09.507Z,100466.08
2018-12-20T04:10:47.556Z,100469.34
2018-12-20T04:12:25.089Z,100474.34
2018-12-20T04:14:02.259Z,100472.58
2018-12-20T04:15:39.884Z,100472.15
2018-12-20T04:17:17.079Z,100470.96
2018-12-20T04:18:54.302Z,100466.25
2018-12-20T04:20:31.221Z,100469.55
2018-12-20T04:22:08.797Z,100466.16
2018-12-20T04:23:43.946Z,100466.52
2018-12-20T04:25:18.970Z,100466.77
2018-12-20T04:26:54.009Z,100464.75
2018-12-20T04:28:29.086Z,100462.85
2018-12-20T04:30:04.184Z,100468.27
2018-12-20T04:31:39.151Z,100466.50
2018-12-20T04:33:14.833Z,100460.13
2018-12-20T04:34:51.317Z,100463.66
2018-12-20T04:36:26.468Z,100459.86
2018-12-20T04:38:01.540Z,100461.67
2018-12-20T04:39:36.928Z,100459.36
2018-12-20T04:41:12.180Z,100459.94
2018-12-20T04:42:47.358Z,100455.35
2018-12-20T04:44:22.658Z,100452.69
2018-12-20T04:46:08.046Z,100453.63
2018-12-20T04:47:45.317Z,100462.49
2018-12-20T04:49:32.294Z,100449.64
2018-12-20T04:53:25.813Z,100457.39
2018-12-20T04:55:01.362Z,100455.90
2018-12-20T04:56:57.149Z,100449.97
2018-12-20T04:58:32.998Z,100456.44
2018-12-20T05:00:08.579Z,100452.78
2018-12-20T05:01:43.725Z,100442.25
2018-12-20T05:03:19.204Z,100446.87
2018-12-20T05:04:54.475Z,100442.19
2018-12-20T05:06:29.681Z,100440.81
2018-12-20T05:08:04.781Z,100436.23
2018-12-20T05:09:39.957Z,100437.13
2018-12-20T05:11:35.241Z,100438.28
2018-12-20T05:13:23.803Z,100442.84
2018-12-20T05:14:58.766Z,100443.03
2018-12-20T05:16:33.758Z,100445.64
2018-12-20T05:18:10.636Z,100448.59
2018-12-20T05:19:45.690Z,100437.44
2018-12-20T05:21:20.795Z,100436.76
2018-12-20T05:23:07.583Z,100443.85
2018-12-20T05:24:48.833Z,100449.98
2018-12-20T05:26:41.180Z,100452.98
2018-12-20T05:28:16.787Z,100452.14
2018-12-20T05:31:53.443Z,100444.80
2018-12-20T05:33:50.282Z,100447.29
2018-12-20T05:36:10.727Z,100450.41
2018-12-20T05:37:57.052Z,100454.54
2018-12-20T05:42:12.463Z,100460.00
2018-12-20T05:43:48.896Z,100455.47
2018-12-20T05:45:24.857Z,100465.42
2018-12-20T05:47:01.181Z,100466.42
2018-12-20T05:48:37.508Z,100459.06
2018-12-20T05:50:13.257Z,100465.14
2018-12-20T05:51:49.448Z,100460.91
2018-12-20T05:53:25.324Z,100459.52
2018-12-20T05:55:01.462Z,100463.41
2018-12-20T05:56:37.234Z,100461.64
2018-12-20T05:58:13.365Z,100461.22
2018-12-20T05:59:49.288Z,100461.03
2018-12-20T06:01:25.499Z,100462.12
2018-12-20T06:03:01.223Z,100458.03
2018-12-20T06:04:37.245Z,100463.11
2018-12-20T06:06:13.205Z,100459.05
2018-12-20T06:07:48.920Z,100464.59
2018-12-20T06:09:24.864Z,100473.90
2018-12-20T06:11:00.964Z,100472.08
2018-12-20T06:12:36.863Z,100470.94
2018-12-20T06:14:12.708Z,100477.34
2018-12-20T06:15:48.689Z,100474.52
2018-12-20T06:17:24.711Z,100484.17
2018-12-20T06:19:00.743Z,100479.34
2018-12-20T06:20:36.750Z,100481.84
2018-12-20T06:22:12.988Z,100470.81
2018-12-20T06:23:49.118Z,100476.38
2018-12-20T06:25:25.013Z,100465.28
2018-12-20T06:27:00.925Z,100463.90
2018-12-20T06:28:36.748Z,100473.20
2018-12-20T06:30:12.829Z,100469.20
2018-12-20T06:31:48.550Z,100465.66
2018-12-20T06:33:24.422Z,100467.24
2018-12-20T06:35:00.526Z,100467.95
2018-12-20T06:36:36.470Z,100465.50
2018-12-20T06:38:12.337Z,100466.68
2018-12-20T06:39:48.235Z,100464.34
2018-12-20T06:41:24.014Z,100463.86
2018-12-20T06:42:59.957Z,100463.13
2018-12-20T06:44:35.770Z,100463.56
2018-12-20T06:46:11.503Z,100465.39
2018-12-20T06:47:49.469Z,100467.48
2018-12-20T06:49:25.335Z,100465.29
2018-12-20T06:51:01.000Z,100468.41
2018-12-20T06:52:36.974Z,100460.36
2018-12-20T06:54:12.604Z,100460.67
2018-12-20T06:55:48.323Z,100470.13
2018-12-20T06:57:23.927Z,100469.30
2018-12-20T06:58:59.583Z,100468.34
2018-12-20T07:00:35.393Z,100472.27
2018-12-20T07:02:11.137Z,100465.03
2018-12-20T07:03:46.849Z,100469.41
2018-12-20T07:05:22.882Z,100465.27
2018-12-20T07:06:58.595Z,100472.95
2018-12-20T07:08:34.630Z,100473.48
2018-12-20T07:10:10.969Z,100472.19
2018-12-20T07:11:46.759Z,100475.69
2018-12-20T07:13:22.619Z,100478.33
2018-12-20T07:14:58.406Z,100474.83
2018-12-20T07:16:34.391Z,100475.67
2018-12-20T07:18:10.363Z,100472.44
2018-12-20T07:19:46.104Z,100474.77
2018-12-20T07:21:21.811Z,100480.77
2018-12-20T07:22:57.468Z,100474.83
2018-12-20T07:24:33.285Z,100477.25
2018-12-20T07:26:09.094Z,100479.45
2018-12-20T07:27:44.767Z,100478.08
2018-12-20T07:29:20.413Z,100476.52
2018-12-20T07:30:56.230Z,100471.98
2018-12-20T07:32:32.035Z,100480.23
2018-12-20T07:34:07.758Z,100476.10
2018-12-20T07:35:43.535Z,100476.73
2018-12-20T07:37:19.220Z,100476.38
2018-12-20T07:38:54.909Z,100473.45
2018-12-20T07:40:30.797Z,100480.71
2018-12-20T07:42:07.233Z,100475.69
2018-12-20T07:43:42.926Z,100478.38
2018-12-20T07:45:18.795Z,100477.08
2018-12-20T07:46:54.698Z,100476.91
2018-12-20T07:48:32.222Z,100479.23
2018-12-20T07:50:10.546Z,100477.03
2018-12-20T07:51:46.469Z,100480.56
2018-12-20T07:53:22.287Z,100481.63
2018-12-20T07:54:58.420Z,100480.10
2018-12-20T07:56:34.201Z,100478.33
2018-12-20T07:58:10.120Z,100475.90
2018-12-20T07:59:46.052Z,100473.75
2018-12-20T08:01:22.021Z,100476.16
2018-12-20T08:02:58.023Z,100481.09
2018-12-20T08:04:33.898Z,100483.17
2018-12-20T08:06:09.617Z,100482.91
2018-12-20T08:07:45.564Z,100476.23
2018-12-20T08:09:21.675Z,100484.63
2018-12-20T08:10:57.566Z,100471.98
2018-12-20T08:12:33.753Z,100478.41
2018-12-20T08:14:09.430Z,100475.60
2018-12-20T08:15:45.378Z,100474.76
2018-12-20T08:17:21.159Z,100477.66
2018-12-20T08:18:57.039Z,100476.52
2018-12-20T08:20:33.122Z,100480.95
2018-12-20T08:22:09.094Z,100482.32
2018-12-20T08:23:45.020Z,100483.55
2018-12-20T08:25:21.063Z,100483.80
2018-12-20T08:26:57.076Z,100491.05
2018-12-20T08:28:33.004Z,100491.59
2018-12-20T08:30:10.371Z,100488.45
2018-12-20T08:31:46.334Z,100488.80
2018-12-20T08:33:22.323Z,100488.50
2018-12-20T08:34:58.280Z,100488.29
2018-12-20T08:36:34.242Z,100491.62
2018-12-20T08:38:10.282Z,100491.77
2018-12-20T08:39:46.056Z,100489.50
2018-12-20T08:41:22.308Z,100488.77
2018-12-20T08:42:58.165Z,100487.27
2018-12-20T08:44:34.476Z,100484.23
2018-12-20T08:46:10.815Z,100488.70
2018-12-20T08:47:46.749Z,100489.00
2018-12-20T08:49:22.698Z,100483.27
2018-12-20T08:50:58.881Z,100482.94
2018-12-20T08:52:35.050Z,100485.48
2018-12-20T08:54:11.261Z,100489.77
2018-12-20T08:55:47.709Z,100490.17
2018-12-20T08:57:24.066Z,100490.89
2018-12-20T08:59:00.976Z,100489.91
2018-12-20T09:00:36.948Z,100492.20
2018-12-20T09:02:13.637Z,100488.83
2018-12-20T09:03:49.838Z,100491.86
2018-12-20T09:05:26.100Z,100499.29
2018-12-20T09:07:02.347Z,100497.98
2018-12-20T09:08:38.803Z,100492.50
2018-12-20T09:10:15.317Z,100493.53
2018-12-20T09:11:52.426Z,100497.04
2018-12-20T09:13:28.903Z,100500.55
2018-12-20T09:15:06.105Z,100492.36
2018-12-20T09:16:42.110Z,100501.06
2018-12-20T09:18:18.046Z,100490.09
2018-12-20T09:19:54.466Z,100496.83
2018-12-20T09:21:30.581Z,100492.36
2018-12-20T09:23:07.456Z,100494.95
2018-12-20T09:24:43.474Z,100492.16
2018-12-20T09:26:19.580Z,100495.64
2018-12-20T09:27:55.624Z,100486.91
2018-12-20T09:29:31.484Z,100497.61
2018-12-20T09:31:14.824Z,100484.47
2018-12-20T09:32:50.985Z,100499.38
2018-12-20T09:34:27.417Z,100495.70
2018-12-20T09:36:03.448Z,100502.95
2018-12-20T09:37:39.317Z,100501.07
2018-12-20T09:39:15.408Z,100499.29
2018-12-20T09:40:51.488Z,100501.41
2018-12-20T09:42:27.201Z,100491.34
2018-12-20T09:44:03.371Z,100498.97
2018-12-20T09:45:39.275Z,100500.86
2018-12-20T09:47:20.152Z,100492.31
2018-12-20T09:48:55.932Z,100493.95
2018-12-20T09:50:31.678Z,100493.30
2018-12-20T09:52:07.620Z,100483.98
2018-12-20T09:53:43.734Z,100482.79
2018-12-20T09:55:19.570Z,100478.37
2018-12-20T09:56:55.409Z,100484.59
2018-12-20T09:58:31.016Z,100479.33
2018-12-20T10:00:10.113Z,100479.14
2018-12-20T10:01:46.025Z,100473.58
2018-12-20T10:03:21.825Z,100469.50
2018-12-20T10:04:57.762Z,100472.71
2018-12-20T10:06:34.431Z,100476.49
2018-12-20T10:08:10.368Z,100472.44
2018-12-20T10:09:46.197Z,100477.13
2018-12-20T10:11:22.619Z,100477.41
2018-12-20T10:12:58.779Z,100479.58
2018-12-20T10:14:34.970Z,100467.28
2018-12-20T10:16:11.140Z,100467.63
2018-12-20T10:17:47.204Z,100469.59
2018-12-20T10:19:23.379Z,100467.23
2018-12-20T10:20:59.409Z,100474.06
2018-12-20T10:22:35.633Z,100463.50
2018-12-20T10:24:11.984Z,100459.12
2018-12-20T10:25:48.138Z,100458.56
2018-12-20T10:27:31.372Z,100461.61
2018-12-20T10:29:03.136Z,100460.17
2018-12-20T10:30:39.574Z,100451.92
2018-12-20T10:32:16.019Z,100448.73
2018-12-20T10:33:52.133Z,100445.97
2018-12-20T10:35:28.432Z,100445.95
2018-12-20T10:37:04.599Z,100439.93
2018-12-20T10:38:41.744Z,100438.50
2018-12-20T10:40:18.299Z,100440.00
2018-12-20T10:41:54.623Z,100439.58
2018-12-20T10:43:31.295Z,100437.16
2018-12-20T10:45:09.077Z,100438.77
2018-12-20T10:46:45.228Z,100438.23
2018-12-20T10:48:21.394Z,100434.16
2018-12-20T10:49:57.543Z,100438.25
2018-12-20T10:51:33.708Z,100430.77
2018-12-20T10:53:09.813Z,100427.35
2018-12-20T10:54:46.125Z,100418.24
2018-12-20T10:56:22.342Z,100426.63
2018-12-20T10:57:58.841Z,100414.96
2018-12-20T10:59:34.981Z,100413.13
2018-12-20T11:01:16.169Z,100412.12
2018-12-20T11:02:57.167Z,100411.22
2018-12-20T11:04:37.098Z,100416.44
2018-12-20T11:06:18.470Z,100416.33
2018-12-20T11:08:01.156Z,100408.09
2018-12-20T11:09:42.335Z,100410.27
2018-12-20T11:11:22.723Z,100408.57
2018-12-20T11:13:00.963Z,100405.91
2018-12-20T11:14:37.130Z,100406.33
2018-12-20T11:16:13.639Z,100402.39
2018-12-20T11:17:49.861Z,100395.66
2018-12-20T11:19:26.470Z,100398.22
2018-12-20T11:21:04.582Z,100396.47
2018-12-20T11:22:40.820Z,100395.24
2018-12-20T11:24:17.144Z,100388.97
2018-12-20T11:25:53.305Z,100392.09
2018-12-20T11:27:29.616Z,100384.71
2018-12-20T11:29:05.502Z,100393.61
2018-12-20T11:30:41.788Z,100395.91
2018-12-20T11:32:18.024Z,100387.48
2018-12-20T11:33:54.546Z,100389.86
2018-12-20T11:35:31.220Z,100386.59
2018-12-20T11:37:08.327Z,100385.56
2018-12-20T11:38:44.564Z,100389.14
2018-12-20T11:40:21.306Z,100386.57
2018-12-20T11:41:58.819Z,100391.34
2018-12-20T11:43:42.359Z,100389.83
2018-12-20T11:45:18.707Z,100388.06
2018-12-20T11:46:55.535Z,100382.52
2018-12-20T11:48:32.421Z,100383.25
2018-12-20T11:50:12.856Z,100383.23
2018-12-20T11:51:50.620Z,100382.13
2018-12-20T11:53:26.923Z,100385.97
2018-12-20T11:55:03.549Z,100387.78
2018-12-20T11:56:39.992Z,100383.27
2018-12-20T11:58:16.604Z,100383.56
2018-12-20T11:59:53.616Z,100386.75
2018-12-20T12:01:30.356Z,100379.87
2018-12-20T12:03:17.618Z,100380.31
2018-12-20T12:04:54.937Z,100382.52
2018-12-20T12:06:31.867Z,100376.45
2018-12-20T12:08:08.294Z,100375.80
2018-12-20T12:09:45.250Z,100379.95
2018-12-20T12:11:26.827Z,100377.78
2018-12-20T12:13:05.414Z,100381.52
2018-12-20T12:14:42.394Z,100378.99
2018-12-20T12:16:19.268Z,100370.68
2018-12-20T12:17:58.908Z,100366.95
2018-12-20T12:19:45.351Z,100366.92
2018-12-20T12:21:22.121Z,100367.75
2018-12-20T12:23:00.740Z,100365.08
2018-12-20T12:24:37.902Z,100368.67
2018-12-20T12:26:15.671Z,100362.36
2018-12-20T12:27:52.746Z,100367.94
2018-12-20T12:29:30.296Z,100368.23
2018-12-20T12:31:07.458Z,100375.20
2018-12-20T12:32:44.088Z,100373.02
2018-12-20T12:34:20.635Z,100366.45
2018-12-20T12:35:57.657Z,100368.72
2018-12-20T12:40:00.859Z,100371.09
2018-12-20T12:43:51.365Z,100370.41
2018-12-20T12:45:27.064Z,100373.28
2018-12-20T12:47:07.272Z,100378.30
2018-12-20T12:48:45.945Z,100376.56
2018-12-20T12:50:26.634Z,100368.91
2018-12-20T12:52:02.809Z,100367.63
2018-12-20T12:55:27.844Z,100380.89
2018-12-20T12:57:04.736Z,100379.97
2018-12-20T12:58:43.719Z,100379.20
2018-12-20T13:02:27.516Z,100392.57
2018-12-20T13:04:05.201Z,100389.83
2018-12-20T13:05:41.299Z,100393.17
2018-12-20T13:07:17.178Z,100388.36
2018-12-20T13:08:52.526Z,100389.34
2018-12-20T13:10:28.006Z,100387.97
2018-12-20T13:12:03.156Z,100391.77
2018-12-20T13:13:38.092Z,100392.95
2018-12-20T13:15:13.695Z,100395.41
2018-12-20T13:16:48.665Z,100391.93
2018-12-20T13:18:23.640Z,100395.83
2018-12-20T13:19:58.564Z,100395.75
2018-12-20T13:21:33.652Z,100385.75
2018-12-20T13:23:09.094Z,100392.50
2018-12-20T13:24:44.401Z,100392.44
2018-12-20T13:26:19.722Z,100392.31
2018-12-20T13:27:55.275Z,100391.55
2018-12-20T13:29:30.435Z,100397.66
2018-12-20T13:31:05.442Z,100395.83
2018-12-20T13:32:40.417Z,100398.98
2018-12-20T13:34:15.422Z,100396.09
2018-12-20T13:35:50.497Z,100393.45
2018-12-20T13:37:25.500Z,100387.33
2018-12-20T13:39:05.152Z,100391.85
2018-12-20T13:40:40.188Z,100391.41
2018-12-20T13:42:15.218Z,100392.31
2018-12-20T13:43:50.248Z,100403.97
2018-12-20T13:45:26.064Z,100402.73
2018-12-20T13:49:20.576Z,100403.27
2018-12-20T13:50:56.292Z,100405.00
2018-12-20T13:52:33.225Z,100415.15
2018-12-20T13:54:08.380Z,100413.92
2018-12-20T13:55:43.367Z,100409.37
2018-12-20T13:57:18.440Z,100407.63
2018-12-20T13:58:54.441Z,100404.21
2018-12-20T14:00:29.728Z,100404.00
2018-12-20T14:02:05.682Z,100400.34
2018-12-20T14:03:57.092Z,100401.89
2018-12-20T14:06:18.671Z,100398.97
2018-12-20T14:07:58.960Z,100399.30
2018-12-20T14:09:38.073Z,100405.23
2018-12-20T14:11:15.071Z,100408.22
2018-12-20T14:13:01.527Z,100401.33
2018-12-20T14:14:41.191Z,100407.89
2018-12-20T14:16:16.966Z,100407.31
2018-12-20T14:17:52.622Z,100410.88
2018-12-20T14:19:28.680Z,100407.89
2018-12-20T14:21:04.315Z,100403.62
2018-12-20T14:22:43.642Z,100406.72
2018-12-20T14:24:19.130Z,100403.28
2018-12-20T14:25:54.948Z,100402.40
2018-12-20T14:27:30.769Z,100404.66
2018-12-20T14:29:06.543Z,100405.27
2018-12-20T14:30:42.280Z,100404.20
2018-12-20T14:32:17.690Z,100400.48
2018-12-20T14:33:53.178Z,100405.67
2018-12-20T14:35:28.722Z,100403.30
2018-12-20T14:37:04.313Z,100405.60
2018-12-20T14:38:40.147Z,100404.77
2018-12-20T14:40:15.751Z,100409.20
2018-12-20T14:41:55.475Z,100410.84
2018-12-20T14:43:30.491Z,100411.64
2018-12-20T14:45:06.610Z,100412.92
2018-12-20T14:46:41.599Z,100408.98
2018-12-20T14:48:21.595Z,100416.57
2018-12-20T14:52:39.282Z,100416.99
2018-12-20T14:54:14.219Z,100418.38
2018-12-20T14:55:49.179Z,100413.66
2018-12-20T14:57:24.448Z,100415.97
2018-12-20T14:58:59.427Z,100416.86
2018-12-20T15:00:34.391Z,100414.51
2018-12-20T15:02:09.351Z,100411.73
2018-12-20T15:03:44.373Z,100414.84
2018-12-20T15:05:19.378Z,100419.91
2018-12-20T15:06:54.344Z,100419.34
2018-12-20T15:08:29.313Z,100414.19
2018-12-20T15:10:05.369Z,100418.66
2018-12-20T15:11:40.371Z,100410.40
2018-12-20T15:13:15.339Z,100411.38
2018-12-20T15:14:50.347Z,100408.02
2018-12-20T15:16:26.274Z,100409.50
2018-12-20T15:18:01.291Z,100416.52
2018-12-20T15:19:36.279Z,100411.42
2018-12-20T15:21:11.307Z,100412.73
2018-12-20T15:22:46.300Z,100417.98
2018-12-20T15:24:21.281Z,100418.06
2018-12-20T15:25:56.275Z,100421.81
2018-12-20T15:27:31.236Z,100423.59
2018-12-20T15:29:06.240Z,100426.73
2018-12-20T15:30:41.283Z,100423.66
2018-12-20T15:32:16.283Z,100427.81
2018-12-20T15:33:52.476Z,100424.81
2018-12-20T15:35:27.501Z,100426.75
2018-12-20T15:37:02.486Z,100426.67
2018-12-20T15:38:37.463Z,100426.94
2018-12-20T15:40:12.421Z,100423.74
2018-12-20T15:41:47.821Z,100430.98
2018-12-20T15:43:22.781Z,100440.08
2018-12-20T15:44:57.744Z,100435.48
2018-12-20T15:46:32.719Z,100432.80
2018-12-20T15:48:07.716Z,100434.03
2018-12-20T15:49:42.796Z,100437.44
2018-12-20T15:51:17.866Z,100434.55
2018-12-20T15:52:52.956Z,100431.34
2018-12-20T15:54:27.944Z,100436.20
2018-12-20T15:56:03.055Z,100437.28
2018-12-20T15:57:38.459Z,100439.03
2018-12-20T15:59:13.497Z,100438.28
2018-12-20T16:00:48.417Z,100434.34
2018-12-20T16:02:23.328Z,100441.07
2018-12-20T16:03:58.371Z,100444.03
2018-12-20T16:05:33.356Z,100445.70
2018-12-20T16:07:08.579Z,100449.96
2018-12-20T16:08:43.724Z,100452.26
2018-12-20T16:10:18.903Z,100447.00
2018-12-20T16:11:53.831Z,100448.97
2018-12-20T16:13:28.767Z,100446.10
2018-12-20T16:15:03.885Z,100444.47
2018-12-20T16:16:39.197Z,100441.61
2018-12-20T16:18:14.191Z,100455.47
2018-12-20T16:19:49.105Z,100451.31
2018-12-20T16:21:24.011Z,100456.91
2018-12-20T16:22:59.215Z,100452.95
2018-12-20T16:24:34.164Z,100448.00
2018-12-20T16:26:09.118Z,100455.39
2018-12-20T16:27:45.080Z,100452.34
2018-12-20T16:29:20.082Z,100449.16
2018-12-20T16:30:55.044Z,100453.93
2018-12-20T16:32:30.219Z,100459.64
2018-12-20T16:34:05.153Z,100461.70
2018-12-20T16:35:40.141Z,100453.57
2018-12-20T16:37:25.309Z,100462.26
2018-12-20T16:39:00.292Z,100463.63
2018-12-20T16:40:35.285Z,100464.22
2018-12-20T16:47:25.691Z,100461.85
2018-12-20T16:49:00.834Z,100457.84
2018-12-20T16:50:35.971Z,100455.67
2018-12-20T16:52:11.245Z,100462.16
2018-12-20T16:53:46.335Z,100459.30
2018-12-20T16:55:21.492Z,100465.52
2018-12-20T16:56:56.887Z,100467.55
2018-12-20T16:58:32.199Z,100466.08
2018-12-20T17:00:09.570Z,100461.20
2018-12-20T17:01:44.722Z,100466.67
2018-12-20T17:03:19.843Z,100463.91
2018-12-20T17:04:54.972Z,100468.02
2018-12-20T17:06:30.411Z,100462.49
2018-12-20T17:08:05.723Z,100465.67
2018-12-20T17:09:41.137Z,100466.66
2018-12-20T17:11:16.196Z,100464.83
2018-12-20T17:12:54.260Z,100462.25
2018-12-20T17:14:29.259Z,100463.63
2018-12-20T17:16:05.392Z,100467.23
2018-12-20T17:17:40.350Z,100463.26
2018-12-20T17:19:22.177Z,100463.73
2018-12-20T17:20:52.430Z,100461.02
2018-12-20T17:22:27.533Z,100465.03
2018-12-20T17:24:02.478Z,100466.16
2018-12-20T17:25:37.540Z,100466.67
2018-12-20T17:27:12.548Z,100467.87
2018-12-20T17:28:47.524Z,100463.14
2018-12-20T17:30:22.572Z,100464.08
2018-12-20T17:31:57.795Z,100466.55
2018-12-20T17:33:32.806Z,100458.69
2018-12-20T17:35:07.831Z,100467.09
2018-12-20T17:36:42.844Z,100457.89
2018-12-20T17:38:17.904Z,100463.09
2018-12-20T17:39:52.887Z,100463.09
2018-12-20T17:41:27.862Z,100466.03
2018-12-20T17:43:02.949Z,100461.36
2018-12-20T17:44:38.013Z,100465.11
2018-12-20T17:46:12.980Z,100461.45
2018-12-20T17:47:47.944Z,100460.48
2018-12-20T17:49:30.350Z,100458.89
2018-12-20T17:50:59.962Z,100463.44
2018-12-20T17:52:35.004Z,100456.81
2018-12-20T17:54:10.032Z,100465.20
2018-12-20T17:55:45.094Z,100462.09
2018-12-20T17:57:20.234Z,100458.33
2018-12-20T17:58:55.230Z,100458.08
2018-12-20T18:00:30.297Z,100456.98
2018-12-20T18:02:05.319Z,100458.80
2018-12-20T18:03:40.337Z,100456.36
2018-12-20T18:05:15.315Z,100461.44
2018-12-20T18:06:50.320Z,100460.55
2018-12-20T18:08:25.776Z,100461.05
2018-12-20T18:10:00.826Z,100463.08
2018-12-20T18:11:35.803Z,100467.20
2018-12-20T18:13:10.991Z,100470.95
2018-12-20T18:14:46.084Z,100465.35
2018-12-20T18:16:21.201Z,100471.42
2018-12-20T18:17:56.137Z,100473.63
2018-12-20T18:19:38.840Z,100476.67
2018-12-20T18:21:08.485Z,100476.80
2018-12-20T18:22:43.446Z,100465.22
2018-12-20T18:24:19.228Z,100473.70
2018-12-20T18:25:54.228Z,100474.31
2018-12-20T18:27:29.437Z,100471.78
2018-12-20T18:29:04.631Z,100476.23
2018-12-20T18:30:39.587Z,100471.30
2018-12-20T18:32:14.867Z,100473.53
2018-12-20T18:33:49.857Z,100476.68
2018-12-20T18:35:24.834Z,100472.69
2018-12-20T18:36:59.846Z,100471.51
2018-12-20T18:38:34.933Z,100467.13
2018-12-20T18:40:11.188Z,100474.95
2018-12-20T18:41:46.128Z,100476.56
2018-12-20T18:43:21.261Z,100477.11
2018-12-20T18:44:56.222Z,100473.75
2018-12-20T18:46:31.182Z,100481.61